createdAt,value
2016-12-18T00:00:14.260Z,21.16
2016-12-18T00:00:28.684Z,21.19
2016-12-18T00:00:43.122Z,21.18
2016-12-18T00:00:57.517Z,21.19
2016-12-18T00:01:11.945Z,21.16
2016-12-18T00:01:26.347Z,21.16
2016-12-18T00:01:41.044Z,21.12
2016-12-18T00:01:55.491Z,21.18
2016-12-18T00:02:09.893Z,21.08
2016-12-18T00:02:24.264Z,21.09
2016-12-18T00:02:38.569Z,21.15
2016-12-18T00:02:53.027Z,21.15
2016-12-18T00:03:07.462Z,21.13
2016-12-18T00:03:21.866Z,21.12
2016-12-18T00:03:36.304Z,21.16
2016-12-18T00:03:50.673Z,21.06
2016-12-18T00:04:05.063Z,21.06
2016-12-18T00:04:19.410Z,21.11
2016-12-18T00:04:33.795Z,21.04
2016-12-18T00:04:48.186Z,21.06
2016-12-18T00:05:02.542Z,21.09
2016-12-18T00:05:16.930Z,21.09
2016-12-18T00:05:31.382Z,21.04
2016-12-18T00:05:45.739Z,21.04
2016-12-18T00:06:00.131Z,21.09
2016-12-18T00:06:14.512Z,21.04
2016-12-18T00:06:28.910Z,21.04
2016-12-18T00:06:43.314Z,21.08
2016-12-18T00:06:57.730Z,21.04
2016-12-18T00:07:12.141Z,21.03
2016-12-18T00:07:26.550Z,21.09
2016-12-18T00:07:40.934Z,21.03
2016-12-18T00:07:55.402Z,21.04
2016-12-18T00:08:09.780Z,21.09
2016-12-18T00:08:24.169Z,21.04
2016-12-18T00:08:38.606Z,21.01
2016-12-18T00:08:52.990Z,21.04
2016-12-18T00:09:07.379Z,21.06
2016-12-18T00:09:21.772Z,21.06
2016-12-18T00:09:36.162Z,21.06
2016-12-18T00:09:50.601Z,21.13
2016-12-18T00:10:05.010Z,21.03
2016-12-18T00:10:19.372Z,21.09
2016-12-18T00:10:33.812Z,21.08
2016-12-18T00:10:48.262Z,21.13
2016-12-18T00:11:02.691Z,21.04
2016-12-18T00:11:17.111Z,21.15
2016-12-18T00:11:31.427Z,21.15
2016-12-18T00:11:45.763Z,21.04
2016-12-18T00:12:00.147Z,21.12
2016-12-18T00:12:14.549Z,21.03
2016-12-18T00:12:28.956Z,21.08
2016-12-18T00:12:43.323Z,21.11
2016-12-18T00:12:57.713Z,21.11
2016-12-18T00:13:12.088Z,21.09
2016-12-18T00:13:26.521Z,21.13
2016-12-18T00:13:40.863Z,21.09
2016-12-18T00:13:55.205Z,21.06
2016-12-18T00:14:09.595Z,21.06
2016-12-18T00:14:24.026Z,21.09
2016-12-18T00:14:38.428Z,21.03
2016-12-18T00:14:52.801Z,21.06
2016-12-18T00:15:07.130Z,21.01
2016-12-18T00:15:21.616Z,21.03
2016-12-18T00:15:36.054Z,21.09
2016-12-18T00:15:50.544Z,21.01
2016-12-18T00:16:04.968Z,21.04
2016-12-18T00:16:19.378Z,21
2016-12-18T00:16:33.820Z,21.06
2016-12-18T00:16:48.397Z,21.08
2016-12-18T00:17:02.818Z,21.06
2016-12-18T00:17:17.215Z,21.06
2016-12-18T00:17:31.645Z,20.97
2016-12-18T00:17:46.072Z,21.08
2016-12-18T00:18:00.511Z,21.04
2016-12-18T00:18:14.845Z,20.98
2016-12-18T00:18:29.213Z,21.01
2016-12-18T00:18:43.565Z,21
2016-12-18T00:18:58.033Z,21.03
2016-12-18T00:19:12.483Z,21
2016-12-18T00:19:26.867Z,20.98
2016-12-18T00:19:41.286Z,20.93
2016-12-18T00:19:55.712Z,20.97
2016-12-18T00:20:10.138Z,20.98
2016-12-18T00:20:24.548Z,20.94
2016-12-18T00:20:38.907Z,20.94
2016-12-18T00:20:53.318Z,20.9
2016-12-18T00:21:07.717Z,20.93
2016-12-18T00:21:22.070Z,20.96
2016-12-18T00:21:36.468Z,20.93
2016-12-18T00:21:50.868Z,20.97
2016-12-18T00:22:05.191Z,20.91
2016-12-18T00:22:19.575Z,20.88
2016-12-18T00:22:33.868Z,20.96
2016-12-18T00:22:48.279Z,20.91
2016-12-18T00:23:02.660Z,20.91
2016-12-18T00:23:17.061Z,20.93
2016-12-18T00:23:31.430Z,20.97
2016-12-18T00:23:45.841Z,20.98
2016-12-18T00:24:00.283Z,20.97
2016-12-18T00:24:14.656Z,20.97
2016-12-18T00:24:29.024Z,21
2016-12-18T00:24:43.461Z,20.98
2016-12-18T00:24:57.861Z,20.97
2016-12-18T00:25:12.263Z,20.97
2016-12-18T00:25:26.696Z,20.97
2016-12-18T00:25:41.064Z,20.91
2016-12-18T00:25:55.433Z,20.91
2016-12-18T00:26:09.876Z,20.96
2016-12-18T00:26:24.271Z,20.9
2016-12-18T00:26:38.701Z,20.97
2016-12-18T00:26:53.097Z,20.96
2016-12-18T00:27:07.464Z,21
2016-12-18T00:27:21.921Z,20.93
2016-12-18T00:27:36.311Z,20.97
2016-12-18T00:27:50.710Z,20.98
2016-12-18T00:28:05.077Z,20.96
2016-12-18T00:28:19.495Z,21.04
2016-12-18T00:28:33.912Z,21.03
2016-12-18T00:28:48.268Z,20.98
2016-12-18T00:29:02.711Z,20.94
2016-12-18T00:29:17.049Z,20.93
2016-12-18T00:29:31.455Z,20.88
2016-12-18T00:29:45.823Z,20.9
2016-12-18T00:30:00.222Z,20.9
2016-12-18T00:30:14.662Z,20.9
2016-12-18T00:30:29.073Z,20.91
2016-12-18T00:30:43.530Z,20.93
2016-12-18T00:30:57.886Z,20.9
2016-12-18T00:31:12.270Z,20.93
2016-12-18T00:31:26.683Z,20.94
2016-12-18T00:31:41.056Z,20.85
2016-12-18T00:31:55.762Z,20.91
2016-12-18T00:32:10.098Z,20.91
2016-12-18T00:32:24.521Z,20.82
2016-12-18T00:32:38.912Z,20.86
2016-12-18T00:32:53.335Z,20.93
2016-12-18T00:33:07.773Z,20.85
2016-12-18T00:33:22.146Z,20.85
2016-12-18T00:33:36.543Z,20.85
2016-12-18T00:33:50.944Z,20.82
2016-12-18T00:34:05.380Z,20.82
2016-12-18T00:34:19.782Z,20.83
2016-12-18T00:34:34.220Z,20.9
2016-12-18T00:34:48.542Z,20.85
2016-12-18T00:35:02.952Z,20.79
2016-12-18T00:35:17.289Z,20.82
2016-12-18T00:35:31.753Z,20.78
2016-12-18T00:35:46.170Z,20.83
2016-12-18T00:36:00.607Z,20.81
2016-12-18T00:36:14.981Z,20.9
2016-12-18T00:36:29.323Z,20.85
2016-12-18T00:36:43.718Z,20.79
2016-12-18T00:36:58.201Z,20.79
2016-12-18T00:37:12.612Z,20.79
2016-12-18T00:37:27.022Z,20.86
2016-12-18T00:37:41.409Z,20.83
2016-12-18T00:37:55.764Z,20.82
2016-12-18T00:38:10.177Z,20.81
2016-12-18T00:38:24.603Z,20.79
2016-12-18T00:38:39.043Z,20.81
2016-12-18T00:38:53.448Z,20.86
2016-12-18T00:39:07.871Z,20.81
2016-12-18T00:39:22.282Z,20.79
2016-12-18T00:39:36.729Z,20.88
2016-12-18T00:39:51.175Z,20.85
2016-12-18T00:40:05.573Z,20.74
2016-12-18T00:40:19.950Z,20.81
2016-12-18T00:40:34.426Z,20.72
2016-12-18T00:40:48.886Z,20.81
2016-12-18T00:41:03.281Z,20.75
2016-12-18T00:41:17.801Z,20.76
2016-12-18T00:41:32.241Z,20.61
2016-12-18T00:41:46.681Z,20.71
2016-12-18T00:42:01.086Z,20.66
2016-12-18T00:42:15.487Z,20.64
2016-12-18T00:42:29.894Z,20.66
2016-12-18T00:42:44.287Z,20.61
2016-12-18T00:42:58.725Z,20.67
2016-12-18T00:43:13.107Z,20.64
2016-12-18T00:43:27.501Z,20.67
2016-12-18T00:43:41.812Z,20.71
2016-12-18T00:43:56.220Z,20.61
2016-12-18T00:44:10.582Z,20.72
2016-12-18T00:44:24.914Z,20.63
2016-12-18T00:44:39.329Z,20.57
2016-12-18T00:44:53.739Z,20.56
2016-12-18T00:45:08.082Z,20.67
2016-12-18T00:45:22.455Z,20.71
2016-12-18T00:45:36.925Z,20.68
2016-12-18T00:45:51.324Z,20.68
2016-12-18T00:46:05.734Z,20.76
2016-12-18T00:46:20.125Z,20.63
2016-12-18T00:46:34.517Z,20.71
2016-12-18T00:46:48.898Z,20.64
2016-12-18T00:47:03.597Z,20.75
2016-12-18T00:47:17.982Z,20.58
2016-12-18T00:47:32.398Z,20.63
2016-12-18T00:47:46.796Z,20.6
2016-12-18T00:48:01.137Z,20.6
2016-12-18T00:48:15.476Z,20.64
2016-12-18T00:48:29.888Z,20.74
2016-12-18T00:48:44.286Z,20.76
2016-12-18T00:48:58.684Z,20.58
2016-12-18T00:49:13.101Z,20.74
2016-12-18T00:49:27.487Z,20.81
2016-12-18T00:49:41.890Z,20.75
2016-12-18T00:49:56.235Z,20.76
2016-12-18T00:50:10.562Z,20.81
2016-12-18T00:50:24.870Z,20.74
2016-12-18T00:50:39.316Z,20.79
2016-12-18T00:50:53.787Z,20.81
2016-12-18T00:51:08.212Z,20.83
2016-12-18T00:51:22.622Z,20.86
2016-12-18T00:51:36.949Z,20.76
2016-12-18T00:51:51.304Z,20.82
2016-12-18T00:52:05.690Z,20.78
2016-12-18T00:52:20.143Z,20.82
2016-12-18T00:52:34.529Z,20.81
2016-12-18T00:52:48.972Z,20.76
2016-12-18T00:53:03.372Z,20.78
2016-12-18T00:53:17.787Z,20.82
2016-12-18T00:53:32.189Z,20.76
2016-12-18T00:53:46.655Z,20.88
2016-12-18T00:54:01.042Z,20.83
2016-12-18T00:54:15.431Z,20.79
2016-12-18T00:54:29.831Z,20.83
2016-12-18T00:54:44.206Z,20.79
2016-12-18T00:54:58.618Z,20.78
2016-12-18T00:55:13.068Z,20.76
2016-12-18T00:55:27.563Z,20.76
2016-12-18T00:55:41.969Z,20.82
2016-12-18T00:55:56.313Z,20.78
2016-12-18T00:56:10.721Z,20.81
2016-12-18T00:56:25.194Z,20.78
2016-12-18T00:56:39.554Z,20.78
2016-12-18T00:56:53.928Z,20.88
2016-12-18T00:57:08.307Z,20.88
2016-12-18T00:57:22.758Z,20.78
2016-12-18T00:57:37.059Z,20.85
2016-12-18T00:57:51.449Z,20.78
2016-12-18T00:58:05.840Z,20.81
2016-12-18T00:58:20.310Z,20.79
2016-12-18T00:58:34.693Z,20.82
2016-12-18T00:58:49.104Z,20.81
2016-12-18T00:59:03.511Z,20.81
2016-12-18T00:59:17.937Z,20.81
2016-12-18T00:59:32.408Z,20.81
2016-12-18T00:59:46.787Z,20.78
2016-12-18T01:00:01.128Z,20.81
2016-12-18T01:00:15.537Z,20.81
2016-12-18T01:00:29.892Z,20.79
2016-12-18T01:00:44.302Z,20.78
2016-12-18T01:00:58.765Z,20.9
2016-12-18T01:01:13.095Z,20.82
2016-12-18T01:01:27.544Z,20.83
2016-12-18T01:01:41.990Z,20.83
2016-12-18T01:01:56.378Z,20.81
2016-12-18T01:02:11.057Z,20.78
2016-12-18T01:02:25.446Z,20.83
2016-12-18T01:02:39.851Z,20.82
2016-12-18T01:02:54.254Z,20.82
2016-12-18T01:03:08.665Z,20.81
2016-12-18T01:03:23.119Z,20.82
2016-12-18T01:03:37.488Z,20.79
2016-12-18T01:03:51.924Z,20.82
2016-12-18T01:04:06.293Z,20.79
2016-12-18T01:04:20.680Z,20.83
2016-12-18T01:04:35.068Z,20.81
2016-12-18T01:04:49.438Z,20.86
2016-12-18T01:05:03.780Z,20.76
2016-12-18T01:05:18.180Z,20.83
2016-12-18T01:05:32.563Z,20.83
2016-12-18T01:05:46.950Z,20.74
2016-12-18T01:06:01.299Z,20.74
2016-12-18T01:06:15.695Z,20.81
2016-12-18T01:06:30.075Z,20.79
2016-12-18T01:06:44.513Z,20.81
2016-12-18T01:06:58.885Z,20.79
2016-12-18T01:07:13.305Z,20.76
2016-12-18T01:07:27.715Z,20.79
2016-12-18T01:07:42.134Z,20.72
2016-12-18T01:07:56.524Z,20.72
2016-12-18T01:08:10.873Z,20.61
2016-12-18T01:08:25.197Z,20.68
2016-12-18T01:08:39.589Z,20.66
2016-12-18T01:08:53.986Z,20.68
2016-12-18T01:09:08.422Z,20.74
2016-12-18T01:09:22.813Z,20.72
2016-12-18T01:09:37.238Z,20.72
2016-12-18T01:09:51.586Z,20.68
2016-12-18T01:10:05.956Z,20.72
2016-12-18T01:10:20.289Z,20.79
2016-12-18T01:10:34.610Z,20.64
2016-12-18T01:10:49.061Z,20.76
2016-12-18T01:11:03.542Z,20.76
2016-12-18T01:11:17.988Z,20.76
2016-12-18T01:11:32.369Z,20.79
2016-12-18T01:11:46.790Z,20.74
2016-12-18T01:12:01.212Z,20.75
2016-12-18T01:12:15.559Z,20.74
2016-12-18T01:12:29.915Z,20.81
2016-12-18T01:12:44.352Z,20.76
2016-12-18T01:12:58.726Z,20.83
2016-12-18T01:13:13.154Z,20.72
2016-12-18T01:13:27.548Z,20.79
2016-12-18T01:13:41.900Z,20.83
2016-12-18T01:13:56.317Z,20.86
2016-12-18T01:14:10.719Z,20.86
2016-12-18T01:14:25.178Z,20.86
2016-12-18T01:14:39.611Z,20.83
2016-12-18T01:14:53.933Z,20.88
2016-12-18T01:15:08.300Z,20.85
2016-12-18T01:15:22.690Z,20.85
2016-12-18T01:15:37.040Z,20.86
2016-12-18T01:15:51.394Z,20.85
2016-12-18T01:16:05.778Z,20.93
2016-12-18T01:16:20.158Z,20.85
2016-12-18T01:16:34.588Z,20.85
2016-12-18T01:16:48.938Z,20.85
2016-12-18T01:17:03.292Z,20.9
2016-12-18T01:17:17.955Z,20.91
2016-12-18T01:17:32.338Z,20.81
2016-12-18T01:17:46.712Z,20.88
2016-12-18T01:18:01.147Z,20.85
2016-12-18T01:18:15.560Z,20.83
2016-12-18T01:18:29.958Z,20.81
2016-12-18T01:18:44.319Z,20.86
2016-12-18T01:18:58.782Z,20.86
2016-12-18T01:19:13.155Z,20.9
2016-12-18T01:19:27.655Z,20.85
2016-12-18T01:19:42.061Z,20.9
2016-12-18T01:19:56.480Z,20.82
2016-12-18T01:20:10.872Z,20.94
2016-12-18T01:20:25.278Z,20.94
2016-12-18T01:20:39.646Z,20.9
2016-12-18T01:20:53.973Z,20.94
2016-12-18T01:21:08.398Z,20.85
2016-12-18T01:21:22.789Z,20.85
2016-12-18T01:21:37.214Z,20.91
2016-12-18T01:21:51.614Z,20.82
2016-12-18T01:22:06.035Z,20.83
2016-12-18T01:22:20.453Z,20.88
2016-12-18T01:22:34.802Z,20.88
2016-12-18T01:22:49.250Z,20.86
2016-12-18T01:23:03.635Z,20.85
2016-12-18T01:23:18.048Z,20.78
2016-12-18T01:23:32.407Z,20.79
2016-12-18T01:23:46.819Z,20.79
2016-12-18T01:24:01.234Z,20.78
2016-12-18T01:24:15.653Z,20.78
2016-12-18T01:24:29.991Z,20.78
2016-12-18T01:24:44.399Z,20.78
2016-12-18T01:24:58.753Z,20.83
2016-12-18T01:25:13.099Z,20.76
2016-12-18T01:25:27.473Z,20.76
2016-12-18T01:25:41.867Z,20.82
2016-12-18T01:25:56.243Z,20.83
2016-12-18T01:26:10.623Z,20.86
2016-12-18T01:26:25.027Z,20.79
2016-12-18T01:26:39.432Z,20.85
2016-12-18T01:26:53.838Z,20.75
2016-12-18T01:27:08.198Z,20.83
2016-12-18T01:27:22.592Z,20.79
2016-12-18T01:27:37.025Z,20.85
2016-12-18T01:27:51.446Z,20.82
2016-12-18T01:28:05.809Z,20.81
2016-12-18T01:28:20.195Z,20.86
2016-12-18T01:28:34.550Z,20.83
2016-12-18T01:28:48.919Z,20.76
2016-12-18T01:29:03.281Z,20.82
2016-12-18T01:29:17.671Z,20.85
2016-12-18T01:29:32.050Z,20.79
2016-12-18T01:29:46.482Z,20.76
2016-12-18T01:30:00.873Z,20.83
2016-12-18T01:30:15.203Z,20.86
2016-12-18T01:30:29.625Z,20.74
2016-12-18T01:30:43.918Z,20.81
2016-12-18T01:30:58.328Z,20.81
2016-12-18T01:31:12.659Z,20.78
2016-12-18T01:31:27.057Z,20.78
2016-12-18T01:31:41.514Z,20.76
2016-12-18T01:31:55.947Z,20.76
2016-12-18T01:32:10.351Z,20.78
2016-12-18T01:32:25.028Z,20.76
2016-12-18T01:32:39.390Z,20.82
2016-12-18T01:32:53.784Z,20.83
2016-12-18T01:33:08.120Z,20.88
2016-12-18T01:33:22.506Z,20.82
2016-12-18T01:33:36.942Z,20.79
2016-12-18T01:33:51.357Z,20.72
2016-12-18T01:34:05.764Z,20.79
2016-12-18T01:34:20.139Z,20.75
2016-12-18T01:34:34.612Z,20.74
2016-12-18T01:34:48.978Z,20.83
2016-12-18T01:35:03.358Z,20.71
2016-12-18T01:35:17.741Z,20.74
2016-12-18T01:35:32.114Z,20.86
2016-12-18T01:35:46.548Z,20.85
2016-12-18T01:36:00.920Z,20.81
2016-12-18T01:36:15.307Z,20.76
2016-12-18T01:36:29.745Z,20.81
2016-12-18T01:36:44.171Z,20.81
2016-12-18T01:36:58.544Z,20.68
2016-12-18T01:37:12.930Z,20.83
2016-12-18T01:37:27.345Z,20.74
2016-12-18T01:37:41.810Z,20.71
2016-12-18T01:37:56.201Z,20.79
2016-12-18T01:38:10.629Z,20.71
2016-12-18T01:38:24.991Z,20.78
2016-12-18T01:38:39.429Z,20.76
2016-12-18T01:38:53.830Z,20.74
2016-12-18T01:39:08.249Z,20.71
2016-12-18T01:39:22.648Z,20.74
2016-12-18T01:39:37.003Z,20.78
2016-12-18T01:39:51.394Z,20.66
2016-12-18T01:40:05.828Z,20.66
2016-12-18T01:40:20.260Z,20.68
2016-12-18T01:40:34.701Z,20.68
2016-12-18T01:40:49.047Z,20.71
2016-12-18T01:41:03.454Z,20.67
2016-12-18T01:41:17.838Z,20.67
2016-12-18T01:41:32.217Z,20.66
2016-12-18T01:41:46.605Z,20.56
2016-12-18T01:42:01.056Z,20.64
2016-12-18T01:42:15.478Z,20.58
2016-12-18T01:42:29.863Z,20.57
2016-12-18T01:42:44.256Z,20.63
2016-12-18T01:42:58.708Z,20.63
2016-12-18T01:43:13.100Z,20.61
2016-12-18T01:43:27.499Z,20.57
2016-12-18T01:43:41.889Z,20.66
2016-12-18T01:43:56.226Z,20.6
2016-12-18T01:44:10.579Z,20.63
2016-12-18T01:44:24.905Z,20.63
2016-12-18T01:44:39.231Z,20.64
2016-12-18T01:44:53.618Z,20.58
2016-12-18T01:45:08.015Z,20.61
2016-12-18T01:45:22.462Z,20.66
2016-12-18T01:45:36.916Z,20.66
2016-12-18T01:45:51.290Z,20.57
2016-12-18T01:46:05.698Z,20.54
2016-12-18T01:46:20.179Z,20.54
2016-12-18T01:46:34.521Z,20.6
2016-12-18T01:46:48.882Z,20.6
2016-12-18T01:47:03.236Z,20.57
2016-12-18T01:47:17.646Z,20.54
2016-12-18T01:47:32.360Z,20.64
2016-12-18T01:47:46.756Z,20.56
2016-12-18T01:48:01.122Z,20.56
2016-12-18T01:48:15.579Z,20.53
2016-12-18T01:48:29.973Z,20.57
2016-12-18T01:48:44.343Z,20.56
2016-12-18T01:48:58.735Z,20.57
2016-12-18T01:49:13.103Z,20.57
2016-12-18T01:49:27.519Z,20.64
2016-12-18T01:49:41.911Z,20.64
2016-12-18T01:49:56.282Z,20.57
2016-12-18T01:50:10.648Z,20.51
2016-12-18T01:50:25.049Z,20.56
2016-12-18T01:50:39.440Z,20.56
2016-12-18T01:50:53.825Z,20.56
2016-12-18T01:51:08.203Z,20.57
2016-12-18T01:51:22.639Z,20.56
2016-12-18T01:51:37.074Z,20.46
2016-12-18T01:51:51.464Z,20.54
2016-12-18T01:52:05.804Z,20.46
2016-12-18T01:52:20.171Z,20.46
2016-12-18T01:52:34.559Z,20.56
2016-12-18T01:52:48.981Z,20.48
2016-12-18T01:53:03.397Z,20.49
2016-12-18T01:53:17.818Z,20.48
2016-12-18T01:53:32.232Z,20.54
2016-12-18T01:53:46.650Z,20.53
2016-12-18T01:54:01.034Z,20.54
2016-12-18T01:54:15.432Z,20.48
2016-12-18T01:54:29.801Z,20.51
2016-12-18T01:54:44.230Z,20.49
2016-12-18T01:54:58.654Z,20.53
2016-12-18T01:55:13.096Z,20.49
2016-12-18T01:55:27.501Z,20.41
2016-12-18T01:55:41.945Z,20.44
2016-12-18T01:55:56.328Z,20.46
2016-12-18T01:56:10.722Z,20.46
2016-12-18T01:56:25.088Z,20.46
2016-12-18T01:56:39.470Z,20.51
2016-12-18T01:56:53.877Z,20.51
2016-12-18T01:57:08.313Z,20.49
2016-12-18T01:57:22.720Z,20.44
2016-12-18T01:57:37.102Z,20.46
2016-12-18T01:57:51.479Z,20.49
2016-12-18T01:58:05.872Z,20.49
2016-12-18T01:58:20.309Z,20.49
2016-12-18T01:58:34.729Z,20.44
2016-12-18T01:58:49.198Z,20.49
2016-12-18T01:59:03.582Z,20.48
2016-12-18T01:59:17.976Z,20.53
2016-12-18T01:59:32.340Z,20.48
2016-12-18T01:59:46.782Z,20.48
2016-12-18T02:00:01.206Z,20.46
2016-12-18T02:00:15.554Z,20.46
2016-12-18T02:00:29.940Z,20.51
2016-12-18T02:00:44.284Z,20.48
2016-12-18T02:00:58.707Z,20.48
2016-12-18T02:01:13.322Z,20.49
2016-12-18T02:01:27.752Z,20.46
2016-12-18T02:01:42.173Z,20.49
2016-12-18T02:01:56.503Z,20.48
2016-12-18T02:02:10.808Z,20.51
2016-12-18T02:02:25.233Z,20.48
2016-12-18T02:02:39.950Z,20.53
2016-12-18T02:02:54.390Z,20.53
2016-12-18T02:03:08.805Z,20.46
2016-12-18T02:03:23.160Z,20.44
2016-12-18T02:03:37.588Z,20.51
2016-12-18T02:03:51.956Z,20.44
2016-12-18T02:04:06.377Z,20.46
2016-12-18T02:04:20.782Z,20.42
2016-12-18T02:04:35.298Z,20.42
2016-12-18T02:04:49.643Z,20.48
2016-12-18T02:05:04.044Z,20.44
2016-12-18T02:05:18.430Z,20.44
2016-12-18T02:05:32.855Z,20.4
2016-12-18T02:05:47.273Z,20.41
2016-12-18T02:06:01.719Z,20.4
2016-12-18T02:06:16.120Z,20.4
2016-12-18T02:06:30.525Z,20.4
2016-12-18T02:06:44.866Z,20.44
2016-12-18T02:06:59.334Z,20.38
2016-12-18T02:07:13.687Z,20.48
2016-12-18T02:07:28.051Z,20.38
2016-12-18T02:07:42.447Z,20.44
2016-12-18T02:07:56.823Z,20.42
2016-12-18T02:08:11.225Z,20.4
2016-12-18T02:08:25.568Z,20.35
2016-12-18T02:08:39.911Z,20.42
2016-12-18T02:08:54.396Z,20.38
2016-12-18T02:09:08.903Z,20.35
2016-12-18T02:09:23.261Z,20.3
2016-12-18T02:09:37.660Z,20.37
2016-12-18T02:09:52.121Z,20.3
2016-12-18T02:10:06.490Z,20.37
2016-12-18T02:10:20.882Z,20.37
2016-12-18T02:10:35.328Z,20.34
2016-12-18T02:10:49.698Z,20.41
2016-12-18T02:11:04.106Z,20.27
2016-12-18T02:11:18.485Z,20.25
2016-12-18T02:11:32.914Z,20.27
2016-12-18T02:11:47.303Z,20.32
2016-12-18T02:12:01.698Z,20.37
2016-12-18T02:12:16.122Z,20.27
2016-12-18T02:12:30.555Z,20.25
2016-12-18T02:12:44.937Z,20.35
2016-12-18T02:12:59.366Z,20.27
2016-12-18T02:13:13.821Z,20.29
2016-12-18T02:13:28.251Z,20.29
2016-12-18T02:13:42.640Z,20.29
2016-12-18T02:13:57.124Z,20.3
2016-12-18T02:14:11.568Z,20.22
2016-12-18T02:14:25.981Z,20.37
2016-12-18T02:14:40.368Z,20.3
2016-12-18T02:14:54.790Z,20.3
2016-12-18T02:15:09.153Z,20.3
2016-12-18T02:15:23.587Z,20.3
2016-12-18T02:15:37.974Z,20.26
2016-12-18T02:15:52.395Z,20.26
2016-12-18T02:16:06.737Z,20.25
2016-12-18T02:16:21.165Z,20.32
2016-12-18T02:16:35.588Z,20.27
2016-12-18T02:16:49.982Z,20.26
2016-12-18T02:17:04.322Z,20.23
2016-12-18T02:17:18.732Z,20.26
2016-12-18T02:17:33.109Z,20.27
2016-12-18T02:17:47.773Z,20.26
2016-12-18T02:18:02.215Z,20.27
2016-12-18T02:18:16.587Z,20.27
2016-12-18T02:18:30.979Z,20.26
2016-12-18T02:18:45.356Z,20.27
2016-12-18T02:18:59.691Z,20.25
2016-12-18T02:19:14.094Z,20.18
2016-12-18T02:19:28.572Z,20.27
2016-12-18T02:19:42.977Z,20.23
2016-12-18T02:19:57.408Z,20.2
2016-12-18T02:20:11.819Z,20.18
2016-12-18T02:20:26.180Z,20.23
2016-12-18T02:20:40.600Z,20.22
2016-12-18T02:20:54.983Z,20.23
2016-12-18T02:21:09.348Z,20.22
2016-12-18T02:21:23.758Z,20.23
2016-12-18T02:21:38.203Z,20.19
2016-12-18T02:21:52.581Z,20.26
2016-12-18T02:22:06.921Z,20.26
2016-12-18T02:22:21.360Z,20.25
2016-12-18T02:22:35.729Z,20.27
2016-12-18T02:22:50.099Z,20.3
2016-12-18T02:23:04.532Z,20.22
2016-12-18T02:23:18.943Z,20.2
2016-12-18T02:23:33.320Z,20.3
2016-12-18T02:23:47.666Z,20.32
2016-12-18T02:24:02.064Z,20.27
2016-12-18T02:24:16.440Z,20.3
2016-12-18T02:24:30.817Z,20.32
2016-12-18T02:24:45.250Z,20.3
2016-12-18T02:24:59.629Z,20.27
2016-12-18T02:25:14.095Z,20.23
2016-12-18T02:25:28.489Z,20.19
2016-12-18T02:25:42.926Z,20.2
2016-12-18T02:25:57.408Z,20.2
2016-12-18T02:26:11.783Z,20.22
2016-12-18T02:26:26.182Z,20.19
2016-12-18T02:26:40.543Z,20.25
2016-12-18T02:26:54.926Z,20.18
2016-12-18T02:27:09.352Z,20.19
2016-12-18T02:27:23.787Z,20.22
2016-12-18T02:27:38.162Z,20.2
2016-12-18T02:27:52.516Z,20.23
2016-12-18T02:28:06.983Z,20.2
2016-12-18T02:28:21.330Z,20.22
2016-12-18T02:28:35.720Z,20.19
2016-12-18T02:28:50.136Z,20.25
2016-12-18T02:29:04.591Z,20.32
2016-12-18T02:29:18.913Z,20.23
2016-12-18T02:29:33.276Z,20.19
2016-12-18T02:29:47.670Z,20.18
2016-12-18T02:30:02.064Z,20.19
2016-12-18T02:30:16.472Z,20.18
2016-12-18T02:30:30.847Z,20.25
2016-12-18T02:30:45.138Z,20.2
2016-12-18T02:30:59.534Z,20.34
2016-12-18T02:31:13.959Z,20.29
2016-12-18T02:31:28.371Z,20.25
2016-12-18T02:31:42.727Z,20.22
2016-12-18T02:31:57.202Z,20.27
2016-12-18T02:32:11.569Z,20.22
2016-12-18T02:32:25.950Z,20.23
2016-12-18T02:32:40.265Z,20.2
2016-12-18T02:32:55.009Z,20.3
2016-12-18T02:33:09.487Z,20.29
2016-12-18T02:33:23.900Z,20.27
2016-12-18T02:33:38.330Z,20.3
2016-12-18T02:33:52.705Z,20.27
2016-12-18T02:34:07.068Z,20.27
2016-12-18T02:34:21.465Z,20.32
2016-12-18T02:34:35.837Z,20.26
2016-12-18T02:34:50.178Z,20.27
2016-12-18T02:35:04.520Z,20.25
2016-12-18T02:35:18.955Z,20.23
2016-12-18T02:35:33.419Z,20.3
2016-12-18T02:35:47.836Z,20.3
2016-12-18T02:36:02.274Z,20.23
2016-12-18T02:36:16.595Z,20.3
2016-12-18T02:36:30.954Z,20.23
2016-12-18T02:36:45.343Z,20.32
2016-12-18T02:36:59.756Z,20.27
2016-12-18T02:37:14.189Z,20.27
2016-12-18T02:37:28.617Z,20.26
2016-12-18T02:37:43.053Z,20.25
2016-12-18T02:37:57.437Z,20.23
2016-12-18T02:38:11.802Z,20.26
2016-12-18T02:38:26.214Z,20.3
2016-12-18T02:38:40.646Z,20.27
2016-12-18T02:38:55.062Z,20.27
2016-12-18T02:39:09.425Z,20.26
2016-12-18T02:39:23.787Z,20.3
2016-12-18T02:39:38.138Z,20.3
2016-12-18T02:39:52.570Z,20.25
2016-12-18T02:40:06.958Z,20.25
2016-12-18T02:40:21.325Z,20.29
2016-12-18T02:40:35.830Z,20.29
2016-12-18T02:40:50.242Z,20.29
2016-12-18T02:41:04.656Z,20.29
2016-12-18T02:41:19.035Z,20.3
2016-12-18T02:41:33.391Z,20.3
2016-12-18T02:41:47.822Z,20.3
2016-12-18T02:42:02.211Z,20.3
2016-12-18T02:42:16.597Z,20.29
2016-12-18T02:42:31.031Z,20.27
2016-12-18T02:42:45.396Z,20.32
2016-12-18T02:42:59.719Z,20.35
2016-12-18T02:43:14.108Z,20.29
2016-12-18T02:43:28.576Z,20.3
2016-12-18T02:43:42.937Z,20.3
2016-12-18T02:43:57.351Z,20.25
2016-12-18T02:44:11.686Z,20.32
2016-12-18T02:44:26.125Z,20.32
2016-12-18T02:44:40.530Z,20.42
2016-12-18T02:44:54.917Z,20.32
2016-12-18T02:45:09.276Z,20.32
2016-12-18T02:45:23.616Z,20.35
2016-12-18T02:45:37.936Z,20.4
2016-12-18T02:45:52.311Z,20.4
2016-12-18T02:46:06.721Z,20.38
2016-12-18T02:46:21.141Z,20.4
2016-12-18T02:46:35.628Z,20.46
2016-12-18T02:46:49.929Z,20.41
2016-12-18T02:47:04.378Z,20.42
2016-12-18T02:47:18.744Z,20.44
2016-12-18T02:47:33.106Z,20.44
2016-12-18T02:47:47.495Z,20.42
2016-12-18T02:48:02.055Z,20.49
2016-12-18T02:48:16.475Z,20.44
2016-12-18T02:48:30.859Z,20.48
2016-12-18T02:48:45.179Z,20.49
2016-12-18T02:48:59.615Z,20.49
2016-12-18T02:49:14.045Z,20.42
2016-12-18T02:49:28.490Z,20.51
2016-12-18T02:49:42.969Z,20.51
2016-12-18T02:49:57.323Z,20.49
2016-12-18T02:50:11.662Z,20.57
2016-12-18T02:50:26.084Z,20.48
2016-12-18T02:50:40.494Z,20.51
2016-12-18T02:50:54.848Z,20.51
2016-12-18T02:51:09.305Z,20.48
2016-12-18T02:51:23.776Z,20.51
2016-12-18T02:51:38.246Z,20.54
2016-12-18T02:51:52.641Z,20.51
2016-12-18T02:52:07.050Z,20.53
2016-12-18T02:52:21.445Z,20.42
2016-12-18T02:52:35.845Z,20.49
2016-12-18T02:52:50.293Z,20.42
2016-12-18T02:53:04.696Z,20.51
2016-12-18T02:53:19.083Z,20.48
2016-12-18T02:53:33.472Z,20.51
2016-12-18T02:53:47.866Z,20.46
2016-12-18T02:54:02.240Z,20.48
2016-12-18T02:54:16.600Z,20.48
2016-12-18T02:54:31.018Z,20.42
2016-12-18T02:54:45.402Z,20.4
2016-12-18T02:54:59.765Z,20.42
2016-12-18T02:55:14.077Z,20.41
2016-12-18T02:55:28.485Z,20.42
2016-12-18T02:55:42.835Z,20.46
2016-12-18T02:55:57.213Z,20.44
2016-12-18T02:56:11.597Z,20.38
2016-12-18T02:56:25.993Z,20.42
2016-12-18T02:56:40.470Z,20.41
2016-12-18T02:56:54.885Z,20.46
2016-12-18T02:57:09.330Z,20.42
2016-12-18T02:57:23.727Z,20.48
2016-12-18T02:57:38.149Z,20.48
2016-12-18T02:57:52.548Z,20.48
2016-12-18T02:58:06.939Z,20.48
2016-12-18T02:58:21.383Z,20.48
2016-12-18T02:58:35.869Z,20.42
2016-12-18T02:58:50.274Z,20.44
2016-12-18T02:59:04.684Z,20.48
2016-12-18T02:59:19.113Z,20.44
2016-12-18T02:59:33.539Z,20.48
2016-12-18T02:59:47.981Z,20.44
2016-12-18T03:00:02.398Z,20.41
2016-12-18T03:00:16.886Z,20.42
2016-12-18T03:00:31.318Z,20.48
2016-12-18T03:00:45.744Z,20.42
2016-12-18T03:01:00.118Z,20.46
2016-12-18T03:01:14.604Z,20.44
2016-12-18T03:01:29.013Z,20.48
2016-12-18T03:01:43.406Z,20.46
2016-12-18T03:01:57.768Z,20.46
2016-12-18T03:02:12.176Z,20.49
2016-12-18T03:02:26.622Z,20.56
2016-12-18T03:02:40.972Z,20.51
2016-12-18T03:02:55.409Z,20.48
2016-12-18T03:03:10.054Z,20.48
2016-12-18T03:03:24.459Z,20.48
2016-12-18T03:03:38.912Z,20.46
2016-12-18T03:03:53.388Z,20.46
2016-12-18T03:04:07.784Z,20.46
2016-12-18T03:04:22.140Z,20.48
2016-12-18T03:04:36.544Z,20.51
2016-12-18T03:04:50.933Z,20.49
2016-12-18T03:05:05.308Z,20.46
2016-12-18T03:05:19.662Z,20.49
2016-12-18T03:05:34.038Z,20.48
2016-12-18T03:05:48.480Z,20.46
2016-12-18T03:06:02.887Z,20.44
2016-12-18T03:06:17.342Z,20.46